Flight Track Log - Related Links

Times and Time Zones

All times are in EDT time to prevent confusion due to time zone crossing. See the CES2227 flight status page for this flight to view local times or setup timezone preferences in your user account.

Time Position Orientation Groundspeed Altitude Reporting Facility
EDT Latitude Longitude Course Direction KTS MPH feet Rate Location/Type
Sun 01:54:24 AM 31.1700 121.7830 343° North 166 191 1,500  Level FlightAware ADS-B
Sun 01:54:49 AM 31.1850 121.7780 344° North 166 191 1,500 2,073 Level FlightAware ADS-B
Sun 01:55:19 AM 31.2080 121.7700 343° North 174 200 3,400 1,747 Climbing FlightAware ADS-B
Sun 01:56:08 AM 31.2500 121.7560 344° North 203 234 3,800 1,245 Climbing FlightAware ADS-B
Sun 01:56:12 AM 31.2580 121.7520 337° Northwest 252 290 4,500 4,000 Climbing FlightAware ADS-B
Sun 01:56:41 AM 31.2930 121.7390 342° North 254 292 6,000 3,059 Climbing FlightAware ADS-B
Sun 01:57:03 AM 31.3200 121.7280 341° North 260 299 7,100 3,000 Climbing FlightAware ADS-B
Sun 01:57:21 AM 31.3440 121.7180 340° North 275 316 8,000 2,889 Climbing FlightAware ADS-B
Sun 01:57:30 AM 31.3550 121.7130 339° North 273 314 8,400 2,333 Climbing FlightAware ADS-B
Sun 01:57:57 AM 31.3880 121.7010 343° North 285 328 9,400 2,361 Climbing FlightAware ADS-B
Sun 01:58:31 AM 31.4330 121.6850 343° North 302 348 10,800 1,808 Climbing FlightAware ADS-B
Sun 01:59:10 AM 31.4840 121.6670 343° North 324 373 11,600 1,371 Climbing FlightAware ADS-B
Sun 01:59:41 AM 31.5350 121.6430 338° Northwest 354 407 12,400 1,944 Climbing FlightAware ADS-B
Sun 02:00:21 AM 31.5810 121.5880 314° West 353 406 13,900 2,416 Climbing FlightAware ADS-B
Sun 02:00:58 AM 31.6270 121.5360 316° Northwest 359 413 15,500 2,250 Climbing FlightAware ADS-B
Sun 02:01:33 AM 31.6660 121.4900 315° West 366 421 16,600 1,870 Climbing FlightAware ADS-B
Sun 02:02:15 AM 31.7170 121.4300 315° West 373 429 17,900 1,694 Climbing FlightAware ADS-B
Sun 02:02:58 AM 31.7690 121.3680 315° West 384 442 19,000 1,385 Climbing FlightAware ADS-B
Sun 02:03:33 AM 31.8140 121.3150 315° West 381 438 19,700 560 Climbing FlightAware ADS-B
Sun 02:04:13 AM 31.8650 121.2550 315° West 384 442 19,700 375 Level FlightAware ADS-B
Sun 02:04:53 AM 31.9160 121.1950 315° West 383 441 20,200 1,800 Climbing FlightAware ADS-B
Sun 02:05:23 AM 31.9520 121.1520 315° West 365 420 21,800 2,585 Climbing FlightAware ADS-B
Sun 02:05:58 AM 31.9930 121.1030 315° West 360 414 23,000 1,840 Climbing FlightAware ADS-B
Sun 02:06:38 AM 32.0410 121.0460 315° West 365 420 24,100 1,588 Climbing FlightAware ADS-B
Sun 02:07:06 AM 32.0690 121.0120 314° West 368 423 24,800 1,733 Climbing FlightAware ADS-B
Sun 02:07:23 AM 32.0930 120.9810 312° West 362 417 25,400 2,063 Climbing FlightAware ADS-B
Sun 02:07:38 AM 32.1040 120.9550 297° West 355 409 25,900 2,160 Climbing FlightAware ADS-B
Sun 02:08:13 AM 32.1220 120.8910 288° West 352 405 27,200 2,057 Climbing FlightAware ADS-B
Sun 02:08:48 AM 32.1400 120.8280 289° West 350 403 28,300 1,714 Climbing FlightAware ADS-B
Sun 02:09:23 AM 32.1540 120.7800 289° West 350 403 29,200 1,662 Climbing FlightAware ADS-B
Sun 02:09:53 AM 32.1690 120.7100 284° West 353 406 30,100 831 Climbing FlightAware ADS-B
Sun 02:10:28 AM 32.1760 120.6430 277° West 378 435 30,100  Level FlightAware ADS-B
Sun 02:11:18 AM 32.1860 120.5310 276° West 402 463 30,100  Level FlightAware ADS-B
Sun 02:11:57 AM 32.1930 120.4660 277° West 401 461 30,100  Level FlightAware ADS-B
Sun 02:12:28 AM 32.2000 120.3810 276° West 399 459 30,100  Level FlightAware ADS-B
Sun 02:13:20 AM 32.2100 120.2830 277° West 399 459 30,100  Level FlightAware ADS-B
Sun 02:13:54 AM 32.2170 120.2200 277° West 399 459 30,100 692 Level FlightAware ADS-B
Sun 02:14:38 AM 32.2230 120.0990 273° West 403 464 31,000 1,050 Climbing FlightAware ADS-B
Sun 02:15:14 AM 32.2290 120.0250 275° West 414 476 31,500 943 Climbing FlightAware ADS-B
Sun 02:15:48 AM 32.2350 119.9400 275° West 422 486 32,100 986 Climbing FlightAware ADS-B
Sun 02:16:27 AM 32.2400 119.8690 275° West 422 486 32,700 1,543 Climbing FlightAware ADS-B
Sun 02:16:58 AM 32.2380 119.7820 268° West 418 481 33,900 1,135 Climbing FlightAware ADS-B
Sun 02:17:41 AM 32.2240 119.6970 259° West 415 478 34,100 150 Climbing FlightAware ADS-B
Sun 02:18:18 AM 32.2020 119.6110 253° West 419 482 34,100  Level FlightAware ADS-B
Sun 02:18:53 AM 32.1810 119.5320 253° West 415 478 34,100 308 Level FlightAware ADS-B
Sun 02:19:36 AM 32.1560 119.4370 253° West 419 482 34,500 1,000 Climbing FlightAware ADS-B
Sun 02:20:11 AM 32.1370 119.3650 253° West 416 479 35,400 711 Climbing FlightAware ADS-B
Sun 02:20:52 AM 32.1190 119.2890 254° West 416 479 35,400 532 Level FlightAware ADS-B
Sun 02:21:30 AM 32.0890 119.1840 251° West 417 480 36,100 575 Climbing FlightAware ADS-B
Sun 02:22:05 AM 32.0710 119.1140 253° West 416 479 36,100  Level FlightAware ADS-B
Sun 02:22:49 AM 32.0490 119.0300 253° West 417 480 36,100  Level FlightAware ADS-B
Sun 02:23:30 AM 32.0290 118.9540 253° West 417 480 36,100  Level FlightAware ADS-B
Sun 02:24:04 AM 32.0130 118.8910 253° West 417 480 36,100  Level FlightAware ADS-B
Sun 02:24:41 AM 31.9950 118.8230 253° West 417 480 36,100  Level FlightAware ADS-B
Sun 02:25:20 AM 31.9760 118.7500 253° West 417 480 36,100  Level FlightAware ADS-B
Sun 02:25:54 AM 31.9600 118.6880 253° West 417 480 36,100  Level FlightAware ADS-B
Sun 02:26:31 AM 31.9420 118.6190 253° West 417 480 36,100  Level FlightAware ADS-B
Sun 02:27:19 AM 31.9190 118.5310 253° West 417 480 36,100  Level FlightAware ADS-B
Sun 02:27:56 AM 31.9020 118.4620 254° West 417 480 36,100  Level FlightAware ADS-B
Sun 02:28:33 AM 31.8840 118.3940 253° West 417 480 36,100  Level FlightAware ADS-B
Sun 02:29:17 AM 31.8630 118.3130 253° West 417 480 36,100  Level FlightAware ADS-B
Sun 02:29:53 AM 31.8450 118.2460 252° West 417 480 36,100  Level FlightAware ADS-B
Sun 02:30:28 AM 31.8290 118.1810 254° West 417 480 36,100  Level FlightAware ADS-B
Sun 02:31:08 AM 31.8100 118.1080 253° West 417 480 36,100  Level FlightAware ADS-B
Sun 02:31:48 AM 31.7900 118.0340 252° West 417 480 36,100  Level FlightAware ADS-B
Sun 02:34:00 AM 31.8215 117.7946 279° West  Level Estimated
Sun 02:35:00 AM 31.8356 117.6857 279° West  Level Estimated
Sun 02:36:00 AM 31.8497 117.5768 279° West  Level Estimated
Sun 02:37:00 AM 31.8636 117.4679 279° West  Level Estimated
Sun 02:38:00 AM 31.8775 117.3589 279° West  Level Estimated
Sun 02:39:00 AM 31.8913 117.2499 278° West  Level Estimated
Sun 02:40:00 AM 31.9050 117.1408 278° West  Level Estimated
Sun 02:41:00 AM 31.9186 117.0318 278° West  Level Estimated
Sun 02:42:00 AM 31.9321 116.9227 278° West  Level Estimated
Sun 02:43:00 AM 31.9455 116.8135 278° West  Level Estimated
Sun 02:44:00 AM 31.9588 116.7044 278° West  Level Estimated
Sun 02:45:00 AM 31.9720 116.5952 278° West  Level Estimated
Sun 02:46:00 AM 31.9851 116.4859 278° West  Level Estimated
Sun 02:47:00 AM 31.9982 116.3767 278° West  Level Estimated
Sun 02:48:00 AM 32.0111 116.2674 278° West  Level Estimated
Sun 02:49:00 AM 32.0240 116.1581 278° West  Level Estimated
Sun 02:50:00 AM 32.0367 116.0487 278° West  Level Estimated
Sun 02:51:00 AM 32.0494 115.9393 278° West  Level Estimated
Sun 02:52:00 AM 32.0619 115.8299 278° West  Level Estimated
Sun 02:53:00 AM 32.0744 115.7204 278° West  Level Estimated
Sun 02:53:42 AM 33.0390 115.5800 278° West 389 448 36,100  Level FlightAware ADS-B
Sun 02:54:25 AM 33.1190 115.4710 311° West 388 447 36,100  Level FlightAware ADS-B
Sun 02:55:02 AM 33.1610 115.4130 311° West 388 447 36,100  Level FlightAware ADS-B
Sun 02:55:41 AM 33.1600 115.4150 121° Southeast 389 448 36,100  Level FlightAware ADS-B
Sun 02:56:16 AM 33.1950 115.3660 310° West 389 448 36,100  Level FlightAware ADS-B
Sun 02:56:52 AM 33.2310 115.3170 311° West 389 448 36,100  Level FlightAware ADS-B
Sun 02:57:28 AM 33.2670 115.2670 311° West 389 448 36,100  Level FlightAware ADS-B
Sun 02:58:05 AM 33.3040 115.2160 311° West 389 448 36,100  Level FlightAware ADS-B
Sun 02:58:41 AM 33.3400 115.1660 311° West 389 448 36,100  Level FlightAware ADS-B
Sun 02:59:11 AM 33.4630 114.9980 311° West 391 450 36,100  Level FlightAware ADS-B
Sun 02:59:47 AM 33.5050 114.9400 311° West 390 449 36,100  Level FlightAware ADS-B
Sun 03:00:24 AM 33.5440 114.8850 310° West 390 449 36,100  Level FlightAware ADS-B
Sun 03:01:01 AM 33.5800 114.8330 310° West 390 449 36,100  Level FlightAware ADS-B
Sun 03:01:36 AM 33.6150 114.7830 310° West 390 449 36,100  Level FlightAware ADS-B
Sun 03:02:09 AM 33.6640 114.7150 311° West 389 448 36,100  Level FlightAware ADS-B
Sun 03:02:49 AM 33.6990 114.6550 305° West 389 448 36,100  Level FlightAware ADS-B
Sun 03:03:25 AM 33.6640 114.7150 125° Southeast 392 451 36,100  Level FlightAware ADS-B
Sun 03:04:06 AM 33.7490 114.4720 293° West 392 451 36,100  Level FlightAware ADS-B
Sun 03:04:39 AM 33.7680 114.4020 288° West 392 451 36,100  Level FlightAware ADS-B
Sun 03:05:41 AM 33.8020 114.2720 288° West 391 450 36,100  Level FlightAware ADS-B
Sun 03:06:26 AM 33.8220 114.1920 287° West 391 450 36,100  Level FlightAware ADS-B
Sun 03:07:12 AM 33.8150 114.2210 106° East 391 450 36,100  Level FlightAware ADS-B
Sun 03:07:56 AM 33.8350 114.1430 287° West 391 450 36,100  Level FlightAware ADS-B
Sun 03:08:32 AM 33.8510 114.0790 287° West 391 450 36,100  Level FlightAware ADS-B
Sun 03:09:09 AM 33.8670 114.0130 286° West 391 450 36,100  Level FlightAware ADS-B
Sun 03:09:56 AM 33.8890 113.9300 288° West 391 450 36,100  Level FlightAware ADS-B
Sun 03:10:33 AM 33.9050 113.8650 287° West 391 450 36,100  Level FlightAware ADS-B
Sun 03:11:14 AM 33.9240 113.7920 287° West 391 450 36,100  Level FlightAware ADS-B
Sun 03:11:52 AM 33.9410 113.7250 287° West 391 450 36,100  Level FlightAware ADS-B
Sun 03:12:31 AM 33.9580 113.6560 287° West 391 450 36,100  Level FlightAware ADS-B
Sun 03:13:07 AM 33.9740 113.5920 287° West 391 450 36,100  Level FlightAware ADS-B
Sun 03:13:45 AM 33.9910 113.5240 287° West 391 450 36,100  Level FlightAware ADS-B
Sun 03:14:24 AM 34.0090 113.4550 287° West 391 450 36,100  Level FlightAware ADS-B
Sun 03:14:59 AM 34.0250 113.3930 287° West 391 450 36,100  Level FlightAware ADS-B
Sun 03:15:37 AM 34.0420 113.3260 287° West 391 450 36,100  Level FlightAware ADS-B
Sun 03:16:13 AM 34.0580 113.2620 287° West 391 450 36,100 -188 Level FlightAware ADS-B
Sun 03:18:00 AM 34.0407 113.0617 264° West  Level Estimated
Sun 03:19:00 AM 34.0309 112.9494 264° West  Level Estimated
Sun 03:20:00 AM 34.0210 112.8371 264° West  Level Estimated
Sun 03:21:00 AM 34.0110 112.7248 264° West  Level Estimated
Sun 03:22:00 AM 34.0008 112.6126 264° West  Level Estimated
Sun 03:23:00 AM 33.9906 112.5004 264° West  Level Estimated
Sun 03:24:00 AM 33.9803 112.3882 264° West  Level Estimated
Sun 03:25:00 AM 33.9698 112.2761 264° West  Level Estimated
Sun 03:26:00 AM 33.9593 112.1640 264° West  Level Estimated
Sun 03:27:00 AM 33.9487 112.0519 264° West  Level Estimated
Sun 03:28:00 AM 33.9379 111.9398 263° West  Level Estimated
Sun 03:29:00 AM 33.9271 111.8278 263° West  Level Estimated
Sun 03:30:00 AM 33.9161 111.7158 263° West  Level Estimated
Sun 03:31:00 AM 33.9051 111.6038 263° West  Level Estimated
Sun 03:32:00 AM 33.8940 111.4919 263° West  Level Estimated
Sun 03:33:00 AM 33.8827 111.3800 263° West  Level Estimated
Sun 03:34:00 AM 33.8714 111.2681 263° West  Level Estimated
Sun 03:35:00 AM 33.8599 111.1563 263° West  Level Estimated
Sun 03:36:00 AM 33.8484 111.0444 263° West  Level Estimated
Sun 03:37:00 AM 33.8367 110.9326 263° West  Level Estimated
Sun 03:38:00 AM 33.8250 110.8209 263° West  Level Estimated
Sun 03:39:00 AM 33.8131 110.7092 263° West  Level Estimated
Sun 03:40:00 AM 33.8012 110.5975 263° West  Level Estimated
Sun 03:41:00 AM 33.7891 110.4858 263° West  Level Estimated
Sun 03:42:00 AM 33.7770 110.3742 263° West  Level Estimated
Sun 03:43:00 AM 33.7647 110.2625 263° West  Level Estimated
Sun 03:44:00 AM 33.7524 110.1510 262° West  Level Estimated
Sun 03:45:00 AM 33.7399 110.0394 262° West  Level Estimated
Sun 03:46:00 AM 33.7273 109.9279 262° West  Level Estimated
Sun 03:47:00 AM 33.7147 109.8164 262° West  Level Estimated
Sun 03:48:00 AM 33.7019 109.7050 262° West  Level Estimated
Sun 03:49:00 AM 33.6891 109.5936 262° West  Level Estimated
Sun 03:50:00 AM 33.6761 109.4822 262° West  Level Estimated
Sun 03:51:00 AM 33.6630 109.3709 262° West  Level Estimated
Sun 03:52:00 AM 33.6499 109.2596 262° West  Level Estimated
Sun 03:53:00 AM 33.6366 109.1483 262° West  Level Estimated
Sun 03:54:00 AM 33.6233 109.0370 262° West  Level Estimated
Sun 03:55:00 AM 33.6098 108.9258 262° West  Level Estimated
Sun 03:56:00 AM 33.5963 108.8147 262° West  Level Estimated
Sun 03:57:00 AM 33.5826 108.7035 262° West  Level Estimated
Sun 03:58:00 AM 33.5689 108.5924 262° West  Level Estimated
Sun 03:59:00 AM 33.5550 108.4814 262° West  Level Estimated
Sun 04:00:00 AM 33.5411 108.3703 261° West  Level Estimated
Sun 04:01:00 AM 33.5270 108.2593 261° West  Level Estimated
Sun 04:02:00 AM 33.5129 108.1484 261° West  Level Estimated
Sun 04:03:00 AM 33.4986 108.0375 261° West  Level Estimated
Sun 04:04:00 AM 33.4843 107.9266 261° West  Level Estimated
Sun 04:05:00 AM 33.4698 107.8157 261° West  Level Estimated
Sun 04:06:00 AM 33.4553 107.7049 261° West  Level Estimated
Sun 04:07:00 AM 33.4407 107.5941 261° West  Level Estimated
Sun 04:08:00 AM 33.4259 107.4834 261° West  Level Estimated
Sun 04:09:00 AM 33.4111 107.3727 261° West  Level Estimated
Sun 04:10:00 AM 33.3961 107.2620 261° West  Level Estimated
Sun 04:11:00 AM 33.3811 107.1514 261° West  Level Estimated
Sun 04:12:00 AM 33.3660 107.0408 261° West  Level Estimated
Sun 04:13:00 AM 33.3507 106.9303 261° West  Level Estimated
Sun 04:14:00 AM 33.3354 106.8198 261° West  Level Estimated
Sun 04:15:00 AM 33.3200 106.7093 261° West  Level Estimated
Sun 04:16:00 AM 33.3044 106.5989 260° West  Level Estimated
Sun 04:17:00 AM 33.2888 106.4885 260° West  Level Estimated
Sun 04:18:00 AM 33.2731 106.3781 260° West  Level Estimated
Sun 04:19:00 AM 33.2573 106.2678 260° West  Level Estimated
Sun 04:20:00 AM 33.2414 106.1576 260° West  Level Estimated
Sun 04:21:00 AM 33.2254 106.0473 260° West  Level Estimated
Sun 04:22:00 AM 33.2093 105.9371 260° West  Level Estimated
Sun 04:22:15 AM 32.4080 104.5020 260° West 396 456 23,600  Level FlightAware ADS-B
Sun 04:22:49 AM 32.4090 104.4290 271° West 395 455 23,600  Level FlightAware ADS-B
Sun 04:23:17 AM 32.4090 104.3720 270° West 395 455 23,600  Level FlightAware ADS-B
Sun 04:23:59 AM 32.4140 104.2770 274° West 396 456 23,600  Level FlightAware ADS-B
Sun 04:24:35 AM 32.4360 104.2040 290° West 395 455 23,600  Level FlightAware ADS-B
Sun 04:25:09 AM 32.4720 104.1460 306° West 395 455 23,600  Level FlightAware ADS-B
Sun 04:25:50 AM 32.5180 104.0980 319° Northwest 394 453 23,600  Level FlightAware ADS-B
Sun 04:25:59 AM 32.5500 104.0870 344° North 392 451 23,600  Level FlightAware ADS-B
Sun 04:26:36 AM 32.6020 104.0620 338° Northwest 392 451 23,600  Level FlightAware ADS-B
Sun 04:27:17 AM 32.6610 104.0340 338° Northwest 392 451 23,600  Level FlightAware ADS-B
Sun 04:27:55 AM 32.7150 104.0070 337° Northwest 392 451 23,600  Level FlightAware ADS-B
Sun 04:28:34 AM 32.7710 103.9810 339° North 392 451 23,600  Level FlightAware ADS-B
Sun 04:29:14 AM 32.8280 103.9530 338° Northwest 392 451 23,600  Level FlightAware ADS-B
Sun 04:29:50 AM 32.8800 103.9280 338° Northwest 392 451 23,600  Level FlightAware ADS-B
Sun 04:32:00 AM 32.8570 103.6830 264° West  Level Estimated
Sun 04:33:00 AM 32.8570 103.6830 North  Level Estimated
Sun 04:34:00 AM 32.8570 103.6830 North  Level Estimated
Sun 04:35:00 AM 32.8570 103.6830 North  Level Estimated
Sun 04:36:00 AM 32.8570 103.6830 North  Level Estimated
Sun 04:37:00 AM 32.8570 103.6830 North  Level Estimated
Sun 04:38:00 AM 32.8570 103.6830 North  Level Estimated
Sun 04:39:00 AM 32.8570 103.6830 North  Level Estimated
Sun 04:40:00 AM 32.8570 103.6830 North  Level Estimated
Sun 04:41:00 AM 32.8570 103.6830 North  Level Estimated
Sun 04:42:00 AM 32.8570 103.6830 North  Level Estimated
Sun 04:43:00 AM 32.8570 103.6830 North  Level Estimated
Sun 04:44:00 AM 32.8570 103.6830 North  Level Estimated
Sun 04:45:00 AM 32.8570 103.6830 North  Level Estimated
Sun 04:46:00 AM 32.8570 103.6830 North  Level Estimated

Login

Don't have an account? Register now (free) for customized features, flight alerts, and more!